Pagina principale
METAR-TAF:

METAR-TAF

Aeroporti :

Istres, Francia

latitudine: 43-31N, longitudine: 004-56E, altezza: 23 m

Osservazione

Il bollettino è stato emesso 16 minuti fa, alle 06:30 UTC
Vento 8 kt da nord
Temperature 3°C
Umidità 93%
Pressione 1009 hPa
Visibilità 10 km o più
nessuna nube inferiore a 1500 m e nessun cumulonembo

METAR: LFMI 180630Z AUTO 35008KT CAVOK 03/02 Q1009 NOSIG

Ora: 07:46 (06:46 UTC)

Previsione

Il bollettino è stato emesso 4 ore e 46 minuti fa, alle 02:00 UTC
Previsione valida dal 18 alle 03 UTC al 19 alle 03 UTC
Vento 2 kt da direzioni variabili
Visibilità 10 km o più
nessuna nube inferiore a 1500 m e nessun cumulonembo
Evoluzione graduale
dal 18 alle 07 UTC al 18 alle 09 UTC
Vento 10 kt da nord
Temporaneamente
dal 18 alle 17 UTC al 19 alle 03 UTC
Vento 20 kt da nord con raffiche fino a 30 kt
pioggia

TAF: LFMI 180200Z 1803/1903 VRB02KT CAVOK BECMG 1807/1809 36010KT TEMPO 1817/1903 36020G30KT RA

Osservazioni e previsioni meteorologiche di più di 4000 aeroporti (messaggi METAR e TAF).

Le stazioni disponibili sono rappresentate dai dischi gialli e rossi sulla carta.

Puntare il mouse per vedere il nome della stazione.

Clicca sopra per visualizzare le osservazioni e previsioni meteorologiche.

Per cambiare la mappa : fare clic sui pulsanti verdi con una croce nera per ingrandire, il pulsante verde con un trattino per diminuire, o sulla freccia verde per le mappe adiacenti.


METAR-TAF: